Time;durP1;ratioP1;P1;durP2;ratioP2;P2;SDS_P1;SDS_P2;PMS_P1;PMS_P2;Temp;Humidity;BMP_temperature;BMP_pressure;BME280_temperature;BME280_humidity;BME280_pressure;Samples;Min_cycle;Max_cycle;Signal;HPM_P1;HPM_P2
2023/11/27 00:01:08;;;;;;;0.80;0.80;;;17.40;54.60;;;;;;6118423;23;20286;-84
2023/11/27 00:03:35;;;;;;;2.05;1.00;;;17.30;54.70;;;;;;6125843;23;20125;-84
2023/11/27 00:06:06;;;;;;;2.35;0.90;;;17.40;54.70;;;;;;6077988;23;20152;-84
2023/11/27 00:08:36;;;;;;;2.05;0.70;;;17.30;54.70;;;;;;6078599;23;20156;-84
2023/11/27 00:11:03;;;;;;;1.10;0.88;;;17.30;54.60;;;;;;6078321;23;20160;-84
2023/11/27 00:13:30;;;;;;;1.63;0.77;;;17.30;54.50;;;;;;6054133;23;20188;-84
2023/11/27 00:15:56;;;;;;;1.30;0.90;;;17.30;54.60;;;;;;6103485;23;20144;-84
2023/11/27 00:18:22;;;;;;;2.65;1.00;;;17.30;54.60;;;;;;6127206;23;20132;-84
2023/11/27 00:20:48;;;;;;;1.20;0.90;;;17.30;54.60;;;;;;6104123;23;20180;-84
2023/11/27 00:23:19;;;;;;;2.30;0.90;;;17.30;54.60;;;;;;6128458;23;20197;-84
2023/11/27 00:25:45;;;;;;;1.23;0.90;;;17.30;54.60;;;;;;6055024;23;20219;-83
2023/11/27 00:28:11;;;;;;;1.88;0.77;;;17.30;54.70;;;;;;6127827;23;20136;-84
2023/11/27 00:30:37;;;;;;;2.00;0.80;;;17.30;54.70;;;;;;6126812;23;20132;-83
2023/11/27 00:33:04;;;;;;;2.45;0.88;;;17.30;54.70;;;;;;6129285;23;20135;-83
2023/11/27 00:35:30;;;;;;;1.27;0.98;;;17.30;54.60;;;;;;6127259;23;20163;-84
2023/11/27 00:37:56;;;;;;;0.95;0.80;;;17.30;54.70;;;;;;6127791;23;20168;-84
2023/11/27 00:40:22;;;;;;;2.70;1.00;;;17.30;54.60;;;;;;6127459;23;20418;-84
2023/11/27 00:42:48;;;;;;;1.60;1.08;;;17.30;54.70;;;;;;6129038;23;20140;-84
2023/11/27 00:45:14;;;;;;;1.77;0.90;;;17.20;54.60;;;;;;6127530;23;20603;-84
2023/11/27 00:47:44;;;;;;;1.85;0.90;;;17.30;54.60;;;;;;6102723;23;20169;-85
2023/11/27 00:50:10;;;;;;;1.98;0.82;;;17.30;54.70;;;;;;6086083;23;20211;-83
2023/11/27 00:52:36;;;;;;;1.15;0.90;;;17.30;54.60;;;;;;6103799;23;20145;-83
2023/11/27 00:57:38;;;;;;;1.70;0.90;;;17.30;54.60;;;;;;6156209;23;20557;-84
2023/11/27 01:00:08;;;;;;;1.92;0.90;;;17.30;54.60;;;;;;6108844;23;20189;-84
2023/11/27 01:02:34;;;;;;;2.10;1.00;;;17.30;54.70;;;;;;6133851;23;20179;-85
2023/11/27 01:05:00;;;;;;;1.30;0.73;;;17.20;54.60;;;;;;6133723;23;20210;-84
2023/11/27 01:07:25;;;;;;;1.13;1.02;;;17.30;54.60;;;;;;6132386;23;20494;-84
2023/11/27 01:09:52;;;;;;;1.67;1.00;;;17.30;54.70;;;;;;6107783;23;20602;-84
2023/11/27 01:12:18;;;;;;;1.95;1.00;;;17.30;54.60;;;;;;6108065;23;20452;-84
2023/11/27 01:14:44;;;;;;;1.85;0.85;;;17.30;54.70;;;;;;6132062;23;20181;-84
2023/11/27 01:17:10;;;;;;;1.35;0.90;;;17.30;54.60;;;;;;6106900;23;20234;-84
2023/11/27 01:19:36;;;;;;;1.50;0.90;;;17.30;54.50;;;;;;6132491;23;20140;-84
2023/11/27 01:22:02;;;;;;;1.08;0.90;;;17.20;54.60;;;;;;6106895;23;20178;-84
2023/11/27 01:24:28;;;;;;;1.15;1.02;;;17.20;54.60;;;;;;6132618;23;20178;-85
2023/11/27 01:26:54;;;;;;;1.83;1.10;;;17.30;54.60;;;;;;6132582;23;20539;-86
2023/11/27 01:29:21;;;;;;;1.88;1.00;;;17.20;54.50;;;;;;6107748;23;20147;-85
2023/11/27 01:31:49;;;;;;;1.63;0.80;;;17.20;54.50;;;;;;6158615;23;20143;-85
2023/11/27 01:36:50;;;;;;;2.40;1.00;;;17.20;54.60;;;;;;6155434;23;20210;-85
2023/11/27 01:39:16;;;;;;;1.45;0.90;;;17.20;54.60;;;;;;6158560;23;20142;-85
2023/11/27 01:41:43;;;;;;;2.92;1.00;;;17.20;54.60;;;;;;6131943;23;20167;-85
2023/11/27 01:44:10;;;;;;;1.35;1.00;;;17.20;54.60;;;;;;6083364;23;20238;-85
2023/11/27 01:46:42;;;;;;;1.02;0.68;;;17.20;54.60;;;;;;6131493;23;20159;-85
2023/11/27 01:49:12;;;;;;;1.98;1.02;;;17.20;54.60;;;;;;6158702;23;20128;-85
2023/11/27 01:51:38;;;;;;;1.13;0.70;;;17.20;54.60;;;;;;6083315;23;20155;-84
2023/11/27 01:54:04;;;;;;;1.65;0.98;;;17.20;54.60;;;;;;6108968;23;20159;-85
2023/11/27 01:56:31;;;;;;;1.38;0.88;;;17.20;54.50;;;;;;6108363;23;20482;-85
2023/11/27 01:58:57;;;;;;;1.00;0.80;;;17.20;54.60;;;;;;6132940;23;20136;-85
2023/11/27 02:03:50;;;;;;;2.60;0.85;;;17.20;54.40;;;;;;6120410;23;20215;-83
2023/11/27 02:06:16;;;;;;;0.73;0.70;;;17.20;54.50;;;;;;6078657;23;20143;-85
2023/11/27 02:08:42;;;;;;;1.10;0.90;;;17.20;54.60;;;;;;6078237;23;20191;-84
2023/11/27 02:11:08;;;;;;;0.98;0.70;;;17.20;54.50;;;;;;6078705;23;20442;-84
2023/11/27 02:13:34;;;;;;;1.15;0.90;;;17.10;54.50;;;;;;6154599;23;20572;-83
2023/11/27 02:16:04;;;;;;;1.60;0.88;;;17.10;54.50;;;;;;6107153;23;20622;-84
2023/11/27 02:18:30;;;;;;;1.60;1.10;;;17.20;54.40;;;;;;6129746;23;20243;-84
2023/11/27 02:21:05;;;;;;;0.95;0.82;;;17.20;54.40;;;;;;6130357;23;20163;-84
2023/11/27 02:23:31;;;;;;;1.30;1.00;;;17.20;54.50;;;;;;6131184;23;20138;-86
2023/11/27 02:25:56;;;;;;;1.58;0.90;;;17.20;54.40;;;;;;6083355;23;20151;-84
2023/11/27 02:28:23;;;;;;;2.08;0.75;;;17.20;54.40;;;;;;6081344;23;20144;-84
2023/11/27 02:30:49;;;;;;;1.20;0.80;;;17.20;54.50;;;;;;6131418;23;20742;-85
2023/11/27 02:33:14;;;;;;;0.98;0.73;;;17.30;54.50;;;;;;6156353;23;20220;-84
2023/11/27 02:35:41;;;;;;;3.03;0.80;;;17.20;54.40;;;;;;6105393;23;20179;-85
2023/11/27 02:38:09;;;;;;;1.38;0.80;;;17.20;54.50;;;;;;6105849;23;20136;-84
2023/11/27 02:40:35;;;;;;;1.75;0.98;;;17.20;54.30;;;;;;6130596;23;20175;-84
2023/11/27 02:43:01;;;;;;;1.05;0.95;;;17.20;54.40;;;;;;6105986;23;20143;-84
2023/11/27 02:45:27;;;;;;;0.73;0.73;;;17.20;54.30;;;;;;6095146;23;20192;-87
2023/11/27 02:48:01;;;;;;;0.82;0.70;;;17.20;54.20;;;;;;6070785;23;20219;-85
2023/11/27 02:50:27;;;;;;;1.17;0.80;;;17.10;54.30;;;;;;6024622;23;20179;-84
2023/11/27 02:52:53;;;;;;;2.47;0.93;;;17.20;54.30;;;;;;6071735;23;20185;-84
2023/11/27 02:55:20;;;;;;;1.38;0.90;;;17.20;54.30;;;;;;6070219;23;20152;-85
2023/11/27 02:57:46;;;;;;;2.05;1.00;;;17.20;54.40;;;;;;6046588;23;20242;-86
2023/11/27 03:00:12;;;;;;;0.80;0.80;;;17.10;54.30;;;;;;6070668;23;20180;-84
2023/11/27 03:02:39;;;;;;;0.98;0.82;;;17.20;54.40;;;;;;6091314;23;20206;-84
2023/11/27 03:05:07;;;;;;;0.93;0.80;;;17.10;54.40;;;;;;6105882;23;20163;-88
2023/11/27 03:07:35;;;;;;;1.00;0.90;;;17.10;54.40;;;;;;6108174;23;20127;-85
2023/11/27 03:10:02;;;;;;;1.55;1.00;;;17.10;54.20;;;;;;6105951;23;20586;-85
2023/11/27 03:12:28;;;;;;;1.60;0.80;;;17.10;54.30;;;;;;6104254;23;20238;-85
2023/11/27 03:14:54;;;;;;;1.10;1.00;;;17.10;54.30;;;;;;6083509;23;20194;-85
2023/11/27 03:17:23;;;;;;;1.33;1.00;;;17.10;54.30;;;;;;6107381;23;20140;-83
2023/11/27 03:19:51;;;;;;;1.33;0.80;;;17.10;54.20;;;;;;6106846;23;20132;-84
2023/11/27 03:22:17;;;;;;;2.75;0.88;;;17.10;54.80;;;;;;6107525;23;20194;-84
2023/11/27 03:24:43;;;;;;;1.25;1.02;;;17.20;54.30;;;;;;6107223;23;20551;-84
2023/11/27 03:29:39;;;;;;;1.40;0.93;;;17.10;54.20;;;;;;6154163;23;20213;-83
2023/11/27 03:32:06;;;;;;;1.17;1.00;;;17.10;54.80;;;;;;6107228;23;20152;-84
2023/11/27 03:34:31;;;;;;;2.08;0.98;;;17.10;54.20;;;;;;6130906;23;20163;-84
2023/11/27 03:36:57;;;;;;;1.77;1.10;;;17.10;54.10;;;;;;6126264;23;20199;-84
2023/11/27 03:39:23;;;;;;;1.40;1.20;;;17.10;54.20;;;;;;6130659;23;20195;-84
2023/11/27 03:41:51;;;;;;;1.40;0.90;;;17.10;54.20;;;;;;6107784;23;20181;-84
2023/11/27 03:44:21;;;;;;;1.50;1.00;;;17.10;54.20;;;;;;6106005;23;20144;-84
2023/11/27 03:46:47;;;;;;;0.98;0.80;;;17.10;54.30;;;;;;6058287;23;20175;-84
2023/11/27 03:49:12;;;;;;;0.98;0.70;;;17.10;54.30;;;;;;6115559;23;20208;-83
2023/11/27 03:51:38;;;;;;;1.70;0.95;;;17.00;54.10;;;;;;6129642;23;20254;-84
2023/11/27 03:54:05;;;;;;;0.80;0.70;;;17.10;54.20;;;;;;6109870;23;20577;-85
2023/11/27 03:56:35;;;;;;;1.48;1.00;;;17.10;54.20;;;;;;6130368;23;20583;-85
2023/11/27 03:59:01;;;;;;;1.15;0.80;;;17.10;54.20;;;;;;6106075;23;20156;-85
2023/11/27 04:01:28;;;;;;;1.48;0.85;;;17.10;54.20;;;;;;6156370;23;20175;-86
2023/11/27 04:03:54;;;;;;;1.13;0.88;;;17.00;54.20;;;;;;6119097;23;20200;-83
2023/11/27 04:06:23;;;;;;;2.08;0.88;;;17.00;54.30;;;;;;6132080;23;20174;-83
2023/11/27 04:08:49;;;;;;;2.35;0.90;;;17.00;54.10;;;;;;6132019;23;20153;-83
2023/11/27 04:13:46;;;;;;;1.55;1.20;;;17.10;54.20;;;;;;6158199;23;20562;-85
2023/11/27 04:16:12;;;;;;;0.82;0.82;;;17.00;54.10;;;;;;6132046;23;20641;-83
2023/11/27 04:18:38;;;;;;;1.02;0.82;;;17.00;54.10;;;;;;6130400;23;20182;-85
2023/11/27 04:21:04;;;;;;;1.27;1.02;;;17.20;54.20;;;;;;6128910;23;20833;-84
2023/11/27 04:23:30;;;;;;;2.05;1.20;;;17.10;54.20;;;;;;6130086;23;20269;-84
2023/11/27 04:26:00;;;;;;;1.25;1.00;;;17.10;54.10;;;;;;6135673;23;20147;-84
2023/11/27 04:28:26;;;;;;;1.00;0.90;;;17.00;54.10;;;;;;6110521;23;20165;-85
2023/11/27 04:30:52;;;;;;;1.27;1.02;;;17.10;54.10;;;;;;6188728;23;20206;-84
2023/11/27 04:33:18;;;;;;;1.38;0.85;;;17.00;54.00;;;;;;6160613;23;20478;-84
2023/11/27 04:35:48;;;;;;;1.30;1.00;;;17.10;54.00;;;;;;6162398;23;20131;-83
2023/11/27 04:38:14;;;;;;;1.92;0.90;;;17.10;54.10;;;;;;6162400;23;20142;-84
2023/11/27 04:40:41;;;;;;;1.20;0.90;;;17.10;54.10;;;;;;6163175;23;20178;-84
2023/11/27 04:43:10;;;;;;;1.98;1.05;;;17.00;54.00;;;;;;6138495;23;20146;-84
2023/11/27 04:45:38;;;;;;;1.02;0.80;;;17.00;54.00;;;;;;6112054;23;20233;-84
2023/11/27 04:48:04;;;;;;;1.00;0.90;;;17.10;54.10;;;;;;6163377;23;20135;-84
2023/11/27 04:50:34;;;;;;;1.30;0.80;;;17.10;54.10;;;;;;6135969;23;20139;-84
2023/11/27 04:53:00;;;;;;;1.50;0.77;;;17.00;54.00;;;;;;6163073;23;20139;-85
2023/11/27 04:55:27;;;;;;;1.10;1.00;;;17.00;54.00;;;;;;6114967;23;20189;-84
2023/11/27 04:57:52;;;;;;;1.02;0.90;;;17.00;54.00;;;;;;6112302;23;20692;-84
2023/11/27 05:00:18;;;;;;;2.42;1.20;;;17.00;54.00;;;;;;6162034;23;20130;-83
2023/11/27 05:02:44;;;;;;;1.15;0.90;;;17.00;53.90;;;;;;6112445;23;20139;-84
2023/11/27 05:05:10;;;;;;;0.80;0.80;;;17.00;54.00;;;;;;6112757;23;20242;-84
2023/11/27 05:07:36;;;;;;;0.80;0.80;;;17.00;53.90;;;;;;6136798;23;20162;-84
2023/11/27 05:10:02;;;;;;;1.48;0.88;;;17.00;53.90;;;;;;6188032;23;20135;-84
2023/11/27 05:12:28;;;;;;;0.98;0.88;;;17.00;53.80;;;;;;6188628;23;20221;-84
2023/11/27 05:14:54;;;;;;;1.60;0.93;;;17.00;53.90;;;;;;6135980;23;20131;-84
2023/11/27 05:17:19;;;;;;;1.95;0.90;;;17.00;54.00;;;;;;6136335;23;20727;-84
2023/11/27 05:19:45;;;;;;;1.73;0.80;;;17.00;54.00;;;;;;6159953;23;20548;-84
2023/11/27 05:22:11;;;;;;;1.27;0.80;;;17.00;54.10;;;;;;6108609;23;20201;-83
2023/11/27 05:24:37;;;;;;;2.38;0.80;;;17.00;53.90;;;;;;6158515;23;20201;-84
2023/11/27 05:27:03;;;;;;;1.23;0.98;;;17.00;53.90;;;;;;6136040;23;20153;-83
2023/11/27 05:29:29;;;;;;;1.50;0.90;;;17.00;53.90;;;;;;6159875;23;20127;-84
2023/11/27 05:31:56;;;;;;;0.93;0.70;;;17.00;54.00;;;;;;6133643;23;20142;-84
2023/11/27 05:34:22;;;;;;;0.90;0.80;;;17.00;54.00;;;;;;6136107;23;20206;-87
2023/11/27 05:36:48;;;;;;;1.17;1.02;;;17.00;54.00;;;;;;6134224;23;20213;-83
2023/11/27 05:39:15;;;;;;;1.35;0.98;;;17.00;53.90;;;;;;6127826;23;20210;-83
2023/11/27 05:41:41;;;;;;;1.15;1.00;;;17.00;53.90;;;;;;6155686;23;20175;-83
2023/11/27 05:44:07;;;;;;;1.35;0.80;;;17.00;53.90;;;;;;6110328;23;20155;-83
2023/11/27 05:46:34;;;;;;;0.90;0.90;;;17.00;53.80;;;;;;6136771;23;20174;-83
2023/11/27 05:49:00;;;;;;;1.30;0.90;;;17.00;53.70;;;;;;6111235;23;20150;-84
2023/11/27 05:51:26;;;;;;;1.60;0.90;;;17.00;53.80;;;;;;6186916;23;20139;-85
2023/11/27 05:53:55;;;;;;;0.90;0.85;;;17.00;53.80;;;;;;6160066;23;20145;-83
2023/11/27 05:56:23;;;;;;;1.50;0.85;;;17.00;53.80;;;;;;6184306;23;20162;-84
2023/11/27 05:58:49;;;;;;;1.20;0.90;;;17.00;53.80;;;;;;6111307;23;20147;-84
2023/11/27 06:01:16;;;;;;;1.40;0.90;;;17.00;53.90;;;;;;6134226;23;20167;-85
2023/11/27 06:03:42;;;;;;;1.67;0.80;;;17.00;53.90;;;;;;6158773;23;20202;-84
2023/11/27 06:06:09;;;;;;;1.88;0.90;;;17.00;53.70;;;;;;6159359;23;20531;-84
2023/11/27 06:08:34;;;;;;;1.67;0.93;;;17.00;53.80;;;;;;6159193;23;20154;-84
2023/11/27 06:11:05;;;;;;;0.80;0.80;;;17.00;53.80;;;;;;6132687;23;20161;-84
2023/11/27 06:13:31;;;;;;;1.10;0.85;;;17.00;53.80;;;;;;6128086;23;20207;-83
2023/11/27 06:18:23;;;;;;;1.00;0.80;;;17.00;53.90;;;;;;6127749;23;20585;-83
2023/11/27 06:29:22;;;;;;;1.10;0.90;;;17.00;53.70;;;;;;6151897;23;20235;-83
2023/11/27 06:31:48;;;;;;;0.90;0.90;;;17.00;53.80;;;;;;6129128;23;20136;-84
2023/11/27 06:36:40;;;;;;;1.38;1.00;;;17.00;53.80;;;;;;6155059;23;20505;-83
2023/11/27 06:39:08;;;;;;;1.30;1.15;;;17.00;53.70;;;;;;6130470;23;20232;-83
2023/11/27 06:41:34;;;;;;;0.70;0.70;;;17.00;53.70;;;;;;6104704;23;20233;-84
2023/11/27 06:44:00;;;;;;;1.48;0.90;;;17.00;53.70;;;;;;6129641;23;20159;-85
2023/11/27 06:46:28;;;;;;;1.85;0.90;;;17.00;53.70;;;;;;6130505;23;20127;-85
2023/11/27 06:48:54;;;;;;;1.27;0.90;;;16.90;53.70;;;;;;6108096;23;20456;-84
2023/11/27 06:51:20;;;;;;;1.83;0.93;;;17.00;53.70;;;;;;6133323;23;20140;-84
2023/11/27 06:53:46;;;;;;;1.77;1.17;;;17.00;53.70;;;;;;6105314;23;20148;-83
2023/11/27 06:56:11;;;;;;;1.92;0.90;;;17.00;53.70;;;;;;6104514;23;20176;-84
2023/11/27 06:58:38;;;;;;;1.27;0.90;;;17.00;53.70;;;;;;6131049;23;20143;-83
2023/11/27 07:01:13;;;;;;;1.20;0.82;;;17.00;53.70;;;;;;6130373;23;20205;-84
2023/11/27 07:03:39;;;;;;;1.15;0.80;;;17.00;53.80;;;;;;6107175;23;20154;-84
2023/11/27 07:06:09;;;;;;;1.52;1.00;;;16.90;53.60;;;;;;6104639;23;20151;-84
2023/11/27 07:08:35;;;;;;;1.90;1.10;;;17.00;53.40;;;;;;6106970;23;20493;-83
2023/11/27 07:11:02;;;;;;;0.77;0.73;;;17.00;53.00;;;;;;6109671;23;20242;-83
2023/11/27 07:13:44;;;;;;;0.80;0.80;;;17.10;53.20;;;;;;6134436;23;20143;-83
2023/11/27 07:16:11;;;;;;;0.95;0.70;;;17.10;53.20;;;;;;6107560;23;20155;-83
2023/11/27 07:18:37;;;;;;;1.13;0.70;;;17.10;52.50;;;;;;6136794;23;20140;-84
2023/11/27 07:21:05;;;;;;;1.73;0.80;;;17.10;52.70;;;;;;6113012;23;20190;-82
2023/11/27 07:23:39;;;;;;;1.58;0.98;;;17.10;53.10;;;;;;6135392;23;20199;-88
2023/11/27 07:26:06;;;;;;;1.15;1.02;;;17.10;52.60;;;;;;6104690;23;20163;-85
2023/11/27 07:28:34;;;;;;;0.80;0.80;;;17.20;52.60;;;;;;6074942;23;20149;-84
2023/11/27 07:31:02;;;;;;;1.85;0.90;;;17.20;52.60;;;;;;6078981;23;20198;-86
2023/11/27 07:33:31;;;;;;;0.80;0.68;;;17.20;52.10;;;;;;6056525;23;20199;-86
2023/11/27 07:35:58;;;;;;;1.73;1.08;;;17.20;52.80;;;;;;6081298;23;20246;-86
2023/11/27 07:38:28;;;;;;;1.30;1.13;;;17.20;52.80;;;;;;6106269;23;20168;-84
2023/11/27 07:41:00;;;;;;;0.88;0.70;;;17.10;52.70;;;;;;6113614;23;20176;-88
2023/11/27 07:43:26;;;;;;;1.92;0.98;;;17.20;51.90;;;;;;6091129;23;20303;-85
2023/11/27 07:46:05;;;;;;;1.38;0.88;;;17.20;51.70;;;;;;6109227;23;20148;-85
2023/11/27 07:48:32;;;;;;;1.13;1.00;;;17.30;51.10;;;;;;6049285;23;20149;-86
2023/11/27 07:50:58;;;;;;;0.90;0.85;;;17.40;51.50;;;;;;6048158;23;20859;-88
2023/11/27 07:53:24;;;;;;;1.42;0.80;;;17.50;51.60;;;;;;6049348;23;20206;-85
2023/11/27 07:55:50;;;;;;;1.10;1.00;;;17.40;51.40;;;;;;6039795;23;20186;-84
2023/11/27 07:58:27;;;;;;;1.30;0.95;;;17.40;51.30;;;;;;6043839;23;20157;-84
2023/11/27 08:00:56;;;;;;;1.08;0.93;;;17.50;50.70;;;;;;6015276;23;20625;-83
2023/11/27 08:04:24;;;;;;;1.10;0.90;;;17.50;50.90;;;;;;6039091;23;20151;-83
2023/11/27 08:07:16;;;;;;;;;;;;;;;;;;;;;
2023/11/27 08:09:49;;;;;;;1.13;0.98;;;17.50;51.10;;;;;;5888394;24;20233;-83
2023/11/27 08:12:16;;;;;;;1.00;0.90;;;17.60;51.00;;;;;;5892508;24;20170;-84
2023/11/27 08:14:45;;;;;;;1.00;0.90;;;17.50;51.90;;;;;;5938094;24;20207;-86
2023/11/27 08:17:10;;;;;;;1.08;0.80;;;17.50;51.60;;;;;;5959753;24;20159;-84
2023/11/27 08:19:37;;;;;;;1.23;0.80;;;17.50;51.60;;;;;;5964168;24;20137;-82
2023/11/27 08:22:04;;;;;;;1.10;0.90;;;17.50;51.50;;;;;;5964326;24;20176;-82
2023/11/27 08:24:32;;;;;;;1.15;0.98;;;17.50;51.70;;;;;;5941679;24;20167;-85
2023/11/27 08:27:01;;;;;;;2.72;0.90;;;17.50;51.50;;;;;;5979996;24;20250;-84
2023/11/27 08:29:31;;;;;;;4.35;0.90;;;17.50;50.70;;;;;;5969525;24;20910;-82
2023/11/27 08:31:58;;;;;;;0.88;0.75;;;17.50;50.90;;;;;;5994434;23;20177;-84
2023/11/27 08:34:25;;;;;;;6.30;1.00;;;17.60;50.90;;;;;;5996057;23;20154;-83
2023/11/27 08:36:59;;;;;;;3.33;0.90;;;17.60;51.30;;;;;;5978468;23;20162;-83
2023/11/27 08:39:29;;;;;;;4.70;1.10;;;17.60;50.90;;;;;;5981465;23;20477;-83
2023/11/27 08:42:17;;;;;;;4.40;1.10;;;17.60;50.80;;;;;;5975007;23;20192;-83
2023/11/27 08:44:46;;;;;;;4.13;1.00;;;17.60;51.40;;;;;;6038060;23;20157;-85
2023/11/27 08:47:13;;;;;;;2.92;1.10;;;17.60;50.80;;;;;;6044501;23;20253;-83
2023/11/27 08:49:42;;;;;;;2.63;0.95;;;17.60;51.00;;;;;;6021938;23;20157;-85
2023/11/27 08:52:08;;;;;;;4.82;1.08;;;17.60;51.40;;;;;;6020651;23;20150;-81
2023/11/27 08:54:34;;;;;;;3.90;0.90;;;17.60;50.80;;;;;;6021233;23;20165;-85
2023/11/27 08:57:01;;;;;;;4.85;1.10;;;17.60;51.60;;;;;;6045917;23;20154;-84
2023/11/27 08:59:31;;;;;;;5.30;1.20;;;17.60;51.20;;;;;;5974973;23;20162;-83
2023/11/27 09:02:00;;;;;;;2.60;1.15;;;17.60;51.20;;;;;;5998622;23;20584;-83
2023/11/27 09:04:26;;;;;;;1.40;0.95;;;17.70;51.60;;;;;;6022731;23;20150;-83
2023/11/27 09:06:52;;;;;;;1.67;0.80;;;17.70;51.30;;;;;;6043598;23;20150;-83
2023/11/27 09:09:53;;;;;;;1.80;0.77;;;17.70;51.30;;;;;;6023631;23;20590;-85
2023/11/27 09:12:25;;;;;;;2.75;1.00;;;17.70;51.80;;;;;;6001880;23;20153;-83
2023/11/27 09:15:54;;;;;;;4.70;1.00;;;17.60;51.70;;;;;;6063076;23;20152;-84
2023/11/27 09:18:06;;;;;;;3.72;0.95;;;17.70;51.90;;;;;;6020090;23;20158;-83
2023/11/27 09:20:36;;;;;;;8.82;1.30;;;17.50;51.70;;;;;;5998518;23;20180;-83
2023/11/27 09:23:04;;;;;;;4.05;1.17;;;17.70;51.50;;;;;;6000208;23;20559;-83
2023/11/27 09:25:30;;;;;;;5.10;1.15;;;17.70;51.80;;;;;;5998365;23;20154;-82
2023/11/27 09:27:59;;;;;;;4.65;1.17;;;17.70;51.40;;;;;;6023407;23;20188;-83
2023/11/27 09:30:52;;;;;;;4.22;1.23;;;17.80;52.00;;;;;;5999997;23;20162;-84
2023/11/27 09:33:25;;;;;;;8.60;1.00;;;17.80;51.70;;;;;;6026580;23;20157;-83
2023/11/27 09:36:01;;;;;;;2.90;1.00;;;17.80;51.10;;;;;;5997189;23;20225;-84
2023/11/27 09:38:33;;;;;;;8.82;1.33;;;17.70;52.10;;;;;;5975105;23;20162;-84
2023/11/27 09:41:24;;;;;;;5.60;1.00;;;17.70;52.30;;;;;;5967234;23;20620;-85
2023/11/27 09:43:56;;;;;;;6.30;1.20;;;17.70;52.60;;;;;;6024791;23;20177;-84
2023/11/27 09:46:29;;;;;;;6.47;1.35;;;17.80;52.60;;;;;;6049621;23;20156;-84
2023/11/27 09:48:57;;;;;;;4.38;1.40;;;17.70;52.20;;;;;;6009605;23;20254;-85
2023/11/27 09:51:31;;;;;;;2.53;1.30;;;17.80;51.90;;;;;;6054189;23;20148;-83
2023/11/27 09:54:01;;;;;;;5.80;1.40;;;17.70;52.10;;;;;;6054748;23;20181;-83
2023/11/27 09:56:31;;;;;;;8.18;1.50;;;17.70;51.80;;;;;;6053226;23;20163;-83
2023/11/27 09:59:20;;;;;;;8.30;1.17;;;17.80;52.50;;;;;;6055465;23;20224;-85
2023/11/27 10:01:53;;;;;;;4.78;1.25;;;17.80;51.80;;;;;;6043501;23;20200;-85
2023/11/27 10:04:42;;;;;;;3.70;1.10;;;17.90;52.10;;;;;;6043216;23;20178;-85
2023/11/27 10:07:13;;;;;;;4.25;1.10;;;17.80;52.50;;;;;;6006600;23;20157;-86
2023/11/27 10:09:51;;;;;;;4.22;1.15;;;17.80;52.60;;;;;;6043588;23;20578;-86
2023/11/27 10:12:28;;;;;;;2.80;1.20;;;17.80;52.80;;;;;;6061491;23;20248;-86
2023/11/27 10:14:55;;;;;;;3.30;1.40;;;17.80;52.60;;;;;;6072722;23;20149;-85
2023/11/27 10:17:27;;;;;;;5.70;1.30;;;17.90;52.60;;;;;;6050867;23;20188;-86
2023/11/27 10:24:11;;;;;;;3.45;1.00;;;17.90;52.60;;;;;;5961220;24;20263;-85
2023/11/27 10:26:43;;;;;;;4.05;1.40;;;17.90;52.80;;;;;;5932187;24;20232;-84
2023/11/27 10:29:11;;;;;;;4.63;1.20;;;17.90;52.70;;;;;;5957203;24;20216;-83
2023/11/27 10:31:39;;;;;;;2.20;1.00;;;17.90;52.90;;;;;;5940622;24;20172;-82
2023/11/27 10:34:11;;;;;;;6.00;1.20;;;17.90;52.80;;;;;;5966611;24;20163;-85
2023/11/27 10:36:40;;;;;;;4.72;1.30;;;17.80;52.80;;;;;;5967716;24;20251;-85
2023/11/27 10:39:09;;;;;;;3.47;1.20;;;17.80;53.10;;;;;;5987984;24;20186;-85
2023/11/27 10:41:35;;;;;;;7.75;1.45;;;17.80;53.00;;;;;;5962755;24;20187;-85
2023/11/27 10:44:04;;;;;;;6.47;1.00;;;17.90;52.50;;;;;;5958821;24;20179;-85
2023/11/27 10:46:31;;;;;;;6.40;1.40;;;17.90;52.30;;;;;;5944369;23;20158;-85
2023/11/27 10:49:01;;;;;;;10.80;1.48;;;17.90;52.50;;;;;;6014154;23;20551;-87
2023/11/27 10:51:30;;;;;;;8.60;1.45;;;18.00;52.20;;;;;;5990691;23;20249;-86
2023/11/27 10:54:03;;;;;;;10.27;1.42;;;17.90;52.30;;;;;;5989675;23;20208;-84
2023/11/27 10:56:30;;;;;;;10.13;1.80;;;17.90;52.50;;;;;;5989390;23;20161;-85
2023/11/27 10:59:04;;;;;;;13.68;1.42;;;17.90;52.70;;;;;;6012063;23;20201;-84
2023/11/27 11:01:32;;;;;;;6.82;1.45;;;17.90;52.30;;;;;;6047211;23;20175;-85
2023/11/27 11:04:02;;;;;;;8.00;1.40;;;17.90;53.00;;;;;;6051906;23;20236;-85
2023/11/27 11:06:32;;;;;;;6.97;1.77;;;17.90;52.10;;;;;;6070592;23;20585;-85
2023/11/27 11:08:57;;;;;;;5.82;1.42;;;17.90;51.80;;;;;;6070865;23;20224;-86
2023/11/27 11:11:23;;;;;;;8.45;1.10;;;18.00;52.20;;;;;;6100668;23;20183;-85
2023/11/27 11:13:50;;;;;;;5.60;1.15;;;18.00;52.40;;;;;;6052398;23;20144;-85
2023/11/27 11:16:24;;;;;;;6.65;1.20;;;18.00;52.10;;;;;;6051629;23;20187;-85
2023/11/27 11:19:06;;;;;;;5.57;1.27;;;18.00;52.10;;;;;;6125889;23;20940;-86
2023/11/27 11:21:57;;;;;;;6.78;1.60;;;17.90;51.50;;;;;;6053726;23;20172;-85
2023/11/27 11:24:47;;;;;;;;;;;;;;;;;;;;;
2023/11/27 11:27:27;;;;;;;7.90;1.63;;;18.00;52.20;;;;;;6080068;23;20183;-86
2023/11/27 11:29:59;;;;;;;2.85;1.23;;;18.00;52.10;;;;;;6018372;23;20153;-85
2023/11/27 11:32:29;;;;;;;6.38;1.20;;;18.00;51.40;;;;;;5979788;24;20163;-85
2023/11/27 11:34:59;;;;;;;7.70;1.10;;;17.90;51.90;;;;;;5987626;23;20654;-86
2023/11/27 11:37:25;;;;;;;5.47;1.30;;;18.00;52.40;;;;;;5965769;23;20189;-83
2023/11/27 11:39:53;;;;;;;4.72;1.10;;;18.00;51.90;;;;;;5985119;23;20558;-84
2023/11/27 11:42:25;;;;;;;3.42;1.15;;;18.00;51.70;;;;;;5961482;23;20523;-86
2023/11/27 11:45:16;;;;;;;4.50;1.00;;;17.90;51.30;;;;;;5985706;23;20631;-85
2023/11/27 11:47:51;;;;;;;3.10;1.02;;;18.00;51.30;;;;;;5987078;23;20238;-86
2023/11/27 11:50:27;;;;;;;4.38;1.20;;;18.00;51.50;;;;;;6009111;23;20185;-84
2023/11/27 11:53:13;;;;;;;5.05;1.10;;;18.10;51.00;;;;;;5964794;23;20165;-86
2023/11/27 11:55:39;;;;;;;4.28;1.10;;;18.10;51.60;;;;;;5990025;23;20162;-85
2023/11/27 11:58:08;;;;;;;4.03;1.50;;;18.00;51.90;;;;;;5963570;23;20167;-84
2023/11/27 12:00:44;;;;;;;6.50;1.00;;;18.00;52.20;;;;;;6005155;23;20166;-82
2023/11/27 12:03:15;;;;;;;3.75;1.10;;;18.00;51.50;;;;;;6078384;23;20879;-85
2023/11/27 12:05:49;;;;;;;4.13;1.15;;;18.00;51.70;;;;;;6095307;23;20209;-83
2023/11/27 12:08:17;;;;;;;4.70;1.42;;;18.00;51.70;;;;;;6071137;23;20468;-83
2023/11/27 12:10:43;;;;;;;3.97;1.30;;;18.00;51.40;;;;;;6100462;23;20222;-84
2023/11/27 12:13:10;;;;;;;2.65;0.93;;;18.00;50.80;;;;;;6074364;23;20204;-85
2023/11/27 12:15:36;;;;;;;8.05;1.63;;;18.10;51.10;;;;;;6108713;23;20182;-85
2023/11/27 12:18:08;;;;;;;2.92;1.27;;;18.10;51.20;;;;;;6129810;23;20212;-87
2023/11/27 12:20:42;;;;;;;1.98;1.20;;;18.10;51.10;;;;;;6134679;23;20143;-86
2023/11/27 12:23:12;;;;;;;3.72;1.25;;;18.00;50.40;;;;;;6090653;23;20533;-86
2023/11/27 12:25:41;;;;;;;3.78;1.00;;;18.10;51.40;;;;;;6134570;23;20131;-85
2023/11/27 12:28:09;;;;;;;2.72;1.50;;;18.10;51.20;;;;;;6113381;23;20621;-86
2023/11/27 12:30:35;;;;;;;1.88;0.98;;;18.10;51.00;;;;;;6116871;23;20213;-86
2023/11/27 12:33:04;;;;;;;3.38;1.27;;;18.10;51.20;;;;;;6117303;23;20160;-86
2023/11/27 12:35:31;;;;;;;3.17;1.02;;;18.10;51.50;;;;;;6110316;23;20269;-86
2023/11/27 12:38:00;;;;;;;3.97;0.95;;;18.10;51.20;;;;;;6108668;23;20165;-84
2023/11/27 12:40:26;;;;;;;2.72;1.20;;;18.10;51.20;;;;;;6134009;23;20411;-85
2023/11/27 12:42:52;;;;;;;4.57;1.00;;;18.10;51.20;;;;;;6109877;23;20183;-86
2023/11/27 12:45:22;;;;;;;3.78;1.05;;;18.10;51.20;;;;;;6111899;23;20148;-85
2023/11/27 12:47:52;;;;;;;4.60;1.10;;;18.10;51.60;;;;;;6138559;23;20260;-83
2023/11/27 12:50:23;;;;;;;1.27;0.82;;;18.10;51.60;;;;;;6140613;23;20134;-85
2023/11/27 12:52:50;;;;;;;1.77;1.10;;;18.10;51.40;;;;;;6091199;23;20147;-84
2023/11/27 12:55:15;;;;;;;4.03;1.05;;;18.10;51.40;;;;;;6111442;23;20151;-84
2023/11/27 12:57:46;;;;;;;1.02;0.93;;;18.10;51.40;;;;;;6134844;23;20199;-84
2023/11/27 13:00:13;;;;;;;1.38;0.90;;;18.10;51.50;;;;;;6137488;23;20131;-83
2023/11/27 13:02:43;;;;;;;5.53;1.40;;;18.10;51.50;;;;;;6160745;23;20246;-85
2023/11/27 13:05:12;;;;;;;2.75;1.00;;;18.00;51.90;;;;;;6105875;23;20591;-85
2023/11/27 13:07:41;;;;;;;1.92;0.95;;;18.10;51.80;;;;;;6128159;23;20210;-87
2023/11/27 13:10:11;;;;;;;1.67;0.88;;;18.10;51.70;;;;;;6106006;23;20139;-86
2023/11/27 13:12:47;;;;;;;1.73;0.90;;;18.00;52.00;;;;;;6074955;23;20197;-86
2023/11/27 13:15:21;;;;;;;1.30;0.95;;;18.10;52.00;;;;;;6076804;23;20268;-86
2023/11/27 13:17:56;;;;;;;1.77;0.95;;;18.00;51.40;;;;;;6076259;23;20520;-84
2023/11/27 13:20:23;;;;;;;2.63;1.30;;;18.00;51.90;;;;;;6096969;23;20199;-87
2023/11/27 13:22:50;;;;;;;1.95;1.08;;;18.00;52.20;;;;;;6072642;23;20633;-85
2023/11/27 13:25:18;;;;;;;2.30;1.20;;;17.90;52.50;;;;;;6097455;23;20184;-85
2023/11/27 13:27:44;;;;;;;1.95;0.98;;;17.90;52.20;;;;;;6073871;23;20153;-85